sensor_id;sensor_type;location;lat;lon;timestamp;pressure;altitude;pressure_sealevel;temperature;humidity
49583;BME280;36329;48.816;44.624;2023-10-13T00:00:41;101778;;;7.7;53.3
49583;BME280;36329;48.816;44.624;2023-10-13T00:03:44;101774;;;7.7;53
49583;BME280;36329;48.816;44.624;2023-10-13T00:06:46;101763;;;7.5;53.6
49583;BME280;36329;48.816;44.624;2023-10-13T00:09:48;101749;;;7.5;53.7
49583;BME280;36329;48.816;44.624;2023-10-13T00:12:50;101750;;;7.4;54.1
49583;BME280;36329;48.816;44.624;2023-10-13T00:15:52;101758;;;7.4;54.5
49583;BME280;36329;48.816;44.624;2023-10-13T00:18:54;101756;;;7.4;54.9
49583;BME280;36329;48.816;44.624;2023-10-13T00:22:01;101751;;;7.3;55.2
49583;BME280;36329;48.816;44.624;2023-10-13T00:25:04;101749;;;7.3;55.3
49583;BME280;36329;48.816;44.624;2023-10-13T00:28:06;101754;;;7.3;54.8
49583;BME280;36329;48.816;44.624;2023-10-13T00:31:08;101749;;;7.2;54.9
49583;BME280;36329;48.816;44.624;2023-10-13T00:34:10;101754;;;7.3;54.5
49583;BME280;36329;48.816;44.624;2023-10-13T00:37:11;101767;;;7.4;54.7
49583;BME280;36329;48.816;44.624;2023-10-13T00:40:13;101768;;;7.4;54
49583;BME280;36329;48.816;44.624;2023-10-13T00:43:15;101764;;;7.3;54.5
49583;BME280;36329;48.816;44.624;2023-10-13T00:46:17;101762;;;7.4;53.9
49583;BME280;36329;48.816;44.624;2023-10-13T00:49:19;101763;;;7.4;54
49583;BME280;36329;48.816;44.624;2023-10-13T00:52:21;101765;;;7.5;54.3
49583;BME280;36329;48.816;44.624;2023-10-13T00:55:23;101760;;;7.4;53.9
49583;BME280;36329;48.816;44.624;2023-10-13T00:58:25;101766;;;7.4;54.4
49583;BME280;36329;48.816;44.624;2023-10-13T01:01:27;101755;;;7.2;55
49583;BME280;36329;48.816;44.624;2023-10-13T01:04:29;101761;;;7.2;55.2
49583;BME280;36329;48.816;44.624;2023-10-13T01:07:31;101757;;;7.2;55.4
49583;BME280;36329;48.816;44.624;2023-10-13T01:10:33;101760;;;7.2;55.2
49583;BME280;36329;48.816;44.624;2023-10-13T01:13:35;101756;;;7.2;55.4
49583;BME280;36329;48.816;44.624;2023-10-13T01:16:38;101751;;;7.2;55.3
49583;BME280;36329;48.816;44.624;2023-10-13T01:19:39;101746;;;7.2;55.5
49583;BME280;36329;48.816;44.624;2023-10-13T01:22:42;101759;;;7.2;55.8
49583;BME280;36329;48.816;44.624;2023-10-13T01:25:44;101754;;;7.2;55.8
49583;BME280;36329;48.816;44.624;2023-10-13T01:28:46;101749;;;7.2;55.9
49583;BME280;36329;48.816;44.624;2023-10-13T01:31:48;101755;;;7.3;55.7
49583;BME280;36329;48.816;44.624;2023-10-13T01:34:50;101745;;;7.5;56.7
49583;BME280;36329;48.816;44.624;2023-10-13T01:37:52;101747;;;7.4;56.1
49583;BME280;36329;48.816;44.624;2023-10-13T01:40:54;101748;;;7.3;56.3
49583;BME280;36329;48.816;44.624;2023-10-13T01:43:56;101747;;;7.1;56.8
49583;BME280;36329;48.816;44.624;2023-10-13T01:46:58;101750;;;6.9;57.8
49583;BME280;36329;48.816;44.624;2023-10-13T01:50:00;101743;;;7;57.8
49583;BME280;36329;48.816;44.624;2023-10-13T01:53:02;101738;;;6.8;57.9
49583;BME280;36329;48.816;44.624;2023-10-13T01:56:05;101728;;;6.8;58.7
49583;BME280;36329;48.816;44.624;2023-10-13T01:59:07;101734;;;6.7;59.1
49583;BME280;36329;48.816;44.624;2023-10-13T02:02:08;101731;;;6.8;59.2
49583;BME280;36329;48.816;44.624;2023-10-13T02:05:11;101733;;;6.8;59
49583;BME280;36329;48.816;44.624;2023-10-13T02:08:13;101730;;;6.7;59
49583;BME280;36329;48.816;44.624;2023-10-13T02:11:15;101726;;;6.8;59.5
49583;BME280;36329;48.816;44.624;2023-10-13T02:14:17;101731;;;6.6;60
49583;BME280;36329;48.816;44.624;2023-10-13T02:17:20;101729;;;6.6;60
49583;BME280;36329;48.816;44.624;2023-10-13T02:20:22;101723;;;6.5;60.9
49583;BME280;36329;48.816;44.624;2023-10-13T02:23:25;101714;;;6.6;60.4
49583;BME280;36329;48.816;44.624;2023-10-13T02:26:30;101720;;;6.4;61.1
49583;BME280;36329;48.816;44.624;2023-10-13T02:29:32;101710;;;6.5;61.1
49583;BME280;36329;48.816;44.624;2023-10-13T02:32:34;101713;;;6.4;61.3
49583;BME280;36329;48.816;44.624;2023-10-13T02:35:36;101707;;;6.4;61.7
49583;BME280;36329;48.816;44.624;2023-10-13T02:38:38;101707;;;6.7;61
49583;BME280;36329;48.816;44.624;2023-10-13T02:41:40;101709;;;6.8;60.5
49583;BME280;36329;48.816;44.624;2023-10-13T02:44:42;101704;;;6.6;61.2
49583;BME280;36329;48.816;44.624;2023-10-13T02:47:44;101704;;;6.5;62
49583;BME280;36329;48.816;44.624;2023-10-13T02:50:55;101704;;;6.6;61.7
49583;BME280;36329;48.816;44.624;2023-10-13T02:53:58;101698;;;6.5;61.9
49583;BME280;36329;48.816;44.624;2023-10-13T02:57:00;101703;;;6.6;61.6
49583;BME280;36329;48.816;44.624;2023-10-13T03:00:01;101696;;;6.8;61
49583;BME280;36329;48.816;44.624;2023-10-13T03:03:05;101695;;;6.7;61.2
49583;BME280;36329;48.816;44.624;2023-10-13T03:06:07;101691;;;6.9;61.2
49583;BME280;36329;48.816;44.624;2023-10-13T03:09:10;101691;;;6.7;61.5
49583;BME280;36329;48.816;44.624;2023-10-13T03:12:12;101685;;;6.7;61.5
49583;BME280;36329;48.816;44.624;2023-10-13T03:15:14;101689;;;6.9;61.1
49583;BME280;36329;48.816;44.624;2023-10-13T03:18:16;101687;;;6.8;61
49583;BME280;36329;48.816;44.624;2023-10-13T03:21:18;101690;;;6.8;61
49583;BME280;36329;48.816;44.624;2023-10-13T03:24:20;101690;;;6.7;60.9
49583;BME280;36329;48.816;44.624;2023-10-13T03:27:22;101684;;;6.5;62.2
49583;BME280;36329;48.816;44.624;2023-10-13T03:30:24;101686;;;6.6;61.9
49583;BME280;36329;48.816;44.624;2023-10-13T03:33:25;101684;;;6.4;62.1
49583;BME280;36329;48.816;44.624;2023-10-13T03:36:27;101684;;;6.5;61.7
49583;BME280;36329;48.816;44.624;2023-10-13T03:39:29;101679;;;6.5;62
49583;BME280;36329;48.816;44.624;2023-10-13T03:42:31;101683;;;6.3;62.4
49583;BME280;36329;48.816;44.624;2023-10-13T03:45:34;101686;;;6.5;62.4
49583;BME280;36329;48.816;44.624;2023-10-13T03:48:36;101683;;;6.4;61.9
49583;BME280;36329;48.816;44.624;2023-10-13T03:51:39;101691;;;6.4;62.2
49583;BME280;36329;48.816;44.624;2023-10-13T03:54:42;101688;;;6.5;62.2
49583;BME280;36329;48.816;44.624;2023-10-13T03:57:44;101692;;;6.7;61.1
49583;BME280;36329;48.816;44.624;2023-10-13T04:00:46;101690;;;6.9;60
49583;BME280;36329;48.816;44.624;2023-10-13T04:03:47;101697;;;6.9;60.1
49583;BME280;36329;48.816;44.624;2023-10-13T04:06:49;101703;;;7.1;59.7
49583;BME280;36329;48.816;44.624;2023-10-13T04:09:51;101695;;;7.4;58.6
49583;BME280;36329;48.816;44.624;2023-10-13T04:12:53;101687;;;7.4;58.5
49583;BME280;36329;48.816;44.624;2023-10-13T04:15:55;101692;;;7.6;57.6
49583;BME280;36329;48.816;44.624;2023-10-13T04:18:57;101691;;;7.8;56.7
49583;BME280;36329;48.816;44.624;2023-10-13T04:21:58;101685;;;7.8;55.8
49583;BME280;36329;48.816;44.624;2023-10-13T04:25:00;101683;;;8.1;56.1
49583;BME280;36329;48.816;44.624;2023-10-13T04:28:03;101681;;;8.2;55
49583;BME280;36329;48.816;44.624;2023-10-13T04:31:05;101678;;;8.3;55.1
49583;BME280;36329;48.816;44.624;2023-10-13T04:34:07;101670;;;8.5;54.4
49583;BME280;36329;48.816;44.624;2023-10-13T04:37:09;101673;;;8.5;54.4
49583;BME280;36329;48.816;44.624;2023-10-13T04:40:11;101681;;;8.9;53.7
49583;BME280;36329;48.816;44.624;2023-10-13T04:43:13;101684;;;9.2;53.4
49583;BME280;36329;48.816;44.624;2023-10-13T04:46:19;101688;;;9.5;51.3
49583;BME280;36329;48.816;44.624;2023-10-13T04:49:21;101684;;;9.4;51.3
49583;BME280;36329;48.816;44.624;2023-10-13T04:52:23;101687;;;9.6;51.4
49583;BME280;36329;48.816;44.624;2023-10-13T04:55:25;101694;;;9.7;51.7
49583;BME280;36329;48.816;44.624;2023-10-13T04:58:27;101696;;;9.8;51.2
49583;BME280;36329;48.816;44.624;2023-10-13T05:01:29;101684;;;10.1;50.6
49583;BME280;36329;48.816;44.624;2023-10-13T05:04:31;101691;;;9.6;51.7
49583;BME280;36329;48.816;44.624;2023-10-13T05:07:33;101691;;;9.3;52.3
49583;BME280;36329;48.816;44.624;2023-10-13T05:10:36;101689;;;8.7;54
49583;BME280;36329;48.816;44.624;2023-10-13T05:13:38;101684;;;8.7;54.4
49583;BME280;36329;48.816;44.624;2023-10-13T05:16:40;101681;;;8.6;55.4
49583;BME280;36329;48.816;44.624;2023-10-13T05:19:42;101687;;;8.5;56.4
49583;BME280;36329;48.816;44.624;2023-10-13T05:22:44;101675;;;9.1;55.8
49583;BME280;36329;48.816;44.624;2023-10-13T05:25:45;101677;;;9.2;55.3
49583;BME280;36329;48.816;44.624;2023-10-13T05:28:48;101678;;;9.4;55.4
49583;BME280;36329;48.816;44.624;2023-10-13T05:31:50;101663;;;9.6;55.4
49583;BME280;36329;48.816;44.624;2023-10-13T05:34:52;101657;;;9.1;58.2
49583;BME280;36329;48.816;44.624;2023-10-13T05:37:54;101668;;;9.5;56.6
49583;BME280;36329;48.816;44.624;2023-10-13T05:40:58;101661;;;10.1;56.1
49583;BME280;36329;48.816;44.624;2023-10-13T05:44:00;101656;;;10.8;54.4
49583;BME280;36329;48.816;44.624;2023-10-13T05:47:02;101653;;;10.8;52.3
49583;BME280;36329;48.816;44.624;2023-10-13T05:50:05;101654;;;11.3;51.9
49583;BME280;36329;48.816;44.624;2023-10-13T05:53:07;101658;;;11.6;50.9
49583;BME280;36329;48.816;44.624;2023-10-13T05:56:09;101650;;;11.3;51.3
49583;BME280;36329;48.816;44.624;2023-10-13T05:59:11;101657;;;11.8;49.9
49583;BME280;36329;48.816;44.624;2023-10-13T06:02:14;101645;;;11.4;48.6
49583;BME280;36329;48.816;44.624;2023-10-13T06:05:16;101641;;;11.6;47
49583;BME280;36329;48.816;44.624;2023-10-13T06:08:18;101646;;;11.7;46.6
49583;BME280;36329;48.816;44.624;2023-10-13T06:11:20;101650;;;11.8;46.5
49583;BME280;36329;48.816;44.624;2023-10-13T06:14:22;101648;;;12.9;44.3
49583;BME280;36329;48.816;44.624;2023-10-13T06:17:24;101646;;;12.9;44.7
49583;BME280;36329;48.816;44.624;2023-10-13T06:20:26;101649;;;13.3;43.8
49583;BME280;36329;48.816;44.624;2023-10-13T06:23:28;101644;;;13.4;42.4
49583;BME280;36329;48.816;44.624;2023-10-13T06:26:29;101640;;;14.1;41.5
49583;BME280;36329;48.816;44.624;2023-10-13T06:29:31;101638;;;13.5;42.9
49583;BME280;36329;48.816;44.624;2023-10-13T06:32:33;101637;;;12.6;43.7
49583;BME280;36329;48.816;44.624;2023-10-13T06:35:36;101628;;;12.3;44.2
49583;BME280;36329;48.816;44.624;2023-10-13T06:38:38;101630;;;12;44.9
49583;BME280;36329;48.816;44.624;2023-10-13T06:41:40;101626;;;12.2;45.5
49583;BME280;36329;48.816;44.624;2023-10-13T06:44:42;101631;;;12.2;45.3
49583;BME280;36329;48.816;44.624;2023-10-13T06:47:44;101627;;;12.9;45.3
49583;BME280;36329;48.816;44.624;2023-10-13T06:50:48;101628;;;13.6;44.3
49583;BME280;36329;48.816;44.624;2023-10-13T06:53:50;101620;;;14.9;42.7
49583;BME280;36329;48.816;44.624;2023-10-13T06:56:52;101614;;;15.7;40.5
49583;BME280;36329;48.816;44.624;2023-10-13T06:59:54;101621;;;13.9;43.5
49583;BME280;36329;48.816;44.624;2023-10-13T07:02:56;101620;;;13.5;45.2
49583;BME280;36329;48.816;44.624;2023-10-13T07:05:58;101617;;;13.3;44.2
49583;BME280;36329;48.816;44.624;2023-10-13T07:09:00;101624;;;13.6;43.3
49583;BME280;36329;48.816;44.624;2023-10-13T07:12:02;101605;;;13.6;43.8
49583;BME280;36329;48.816;44.624;2023-10-13T07:15:05;101599;;;13.5;43.2
49583;BME280;36329;48.816;44.624;2023-10-13T07:18:07;101600;;;13.2;43
49583;BME280;36329;48.816;44.624;2023-10-13T07:21:09;101592;;;13.9;41.9
49583;BME280;36329;48.816;44.624;2023-10-13T07:24:11;101589;;;14.1;41.5
49583;BME280;36329;48.816;44.624;2023-10-13T07:27:13;101589;;;15.4;40.7
49583;BME280;36329;48.816;44.624;2023-10-13T07:30:15;101584;;;15;40.6
49583;BME280;36329;48.816;44.624;2023-10-13T07:33:17;101577;;;14.8;42.3
49583;BME280;36329;48.816;44.624;2023-10-13T07:36:19;101586;;;14.6;43.1
49583;BME280;36329;48.816;44.624;2023-10-13T07:39:20;101574;;;15.4;42.3
49583;BME280;36329;48.816;44.624;2023-10-13T07:42:22;101566;;;15.4;41.6
49583;BME280;36329;48.816;44.624;2023-10-13T07:45:24;101555;;;15.1;42.8
49583;BME280;36329;48.816;44.624;2023-10-13T07:48:26;101546;;;15.1;42.4
49583;BME280;36329;48.816;44.624;2023-10-13T07:51:28;101548;;;14.6;43.2
49583;BME280;36329;48.816;44.624;2023-10-13T07:54:31;101545;;;14.6;42.8
49583;BME280;36329;48.816;44.624;2023-10-13T07:57:32;101551;;;14.5;42.9
49583;BME280;36329;48.816;44.624;2023-10-13T08:00:34;101544;;;14.5;42.7
49583;BME280;36329;48.816;44.624;2023-10-13T08:03:36;101547;;;14.4;42
49583;BME280;36329;48.816;44.624;2023-10-13T08:06:38;101532;;;15;41.5
49583;BME280;36329;48.816;44.624;2023-10-13T08:09:40;101535;;;15.5;40.8
49583;BME280;36329;48.816;44.624;2023-10-13T08:12:42;101535;;;15.3;41.3
49583;BME280;36329;48.816;44.624;2023-10-13T08:15:44;101529;;;15.3;41.2
49583;BME280;36329;48.816;44.624;2023-10-13T08:18:46;101524;;;15;41.4
49583;BME280;36329;48.816;44.624;2023-10-13T08:21:48;101518;;;14.8;42.7
49583;BME280;36329;48.816;44.624;2023-10-13T08:24:51;101523;;;14.6;42.9
49583;BME280;36329;48.816;44.624;2023-10-13T08:27:54;101514;;;15.7;41.3
49583;BME280;36329;48.816;44.624;2023-10-13T08:30:56;101522;;;16.8;38
49583;BME280;36329;48.816;44.624;2023-10-13T08:33:57;101519;;;16.9;37.8
49583;BME280;36329;48.816;44.624;2023-10-13T08:36:59;101510;;;17.7;36.4
49583;BME280;36329;48.816;44.624;2023-10-13T08:40:01;101517;;;17.4;36.7
49583;BME280;36329;48.816;44.624;2023-10-13T08:43:11;101503;;;17.3;37
49583;BME280;36329;48.816;44.624;2023-10-13T08:46:13;101507;;;17;37
49583;BME280;36329;48.816;44.624;2023-10-13T08:49:15;101500;;;17.7;35.8
49583;BME280;36329;48.816;44.624;2023-10-13T08:52:19;101498;;;17.9;35.1
49583;BME280;36329;48.816;44.624;2023-10-13T08:55:21;101498;;;17.6;35.9
49583;BME280;36329;48.816;44.624;2023-10-13T08:58:23;101495;;;17;36.9
49583;BME280;36329;48.816;44.624;2023-10-13T09:01:32;101484;;;17.7;36.4
49583;BME280;36329;48.816;44.624;2023-10-13T09:04:34;101479;;;19.2;34.3
49583;BME280;36329;48.816;44.624;2023-10-13T09:07:44;101478;;;19;34.3
49583;BME280;36329;48.816;44.624;2023-10-13T09:10:46;101485;;;17.2;36.4
49583;BME280;36329;48.816;44.624;2023-10-13T09:13:48;101481;;;16.6;38
49583;BME280;36329;48.816;44.624;2023-10-13T09:16:50;101484;;;16.3;39
49583;BME280;36329;48.816;44.624;2023-10-13T09:19:52;101474;;;16.6;39.5
49583;BME280;36329;48.816;44.624;2023-10-13T09:22:55;101470;;;16.8;39.3
49583;BME280;36329;48.816;44.624;2023-10-13T09:26:05;101469;;;17;39.1
49583;BME280;36329;48.816;44.624;2023-10-13T09:29:14;101476;;;17.1;38.4
49583;BME280;36329;48.816;44.624;2023-10-13T09:32:18;101474;;;17.1;38.9
49583;BME280;36329;48.816;44.624;2023-10-13T09:35:20;101472;;;17.1;39
49583;BME280;36329;48.816;44.624;2023-10-13T09:38:22;101461;;;17.1;39.6
49583;BME280;36329;48.816;44.624;2023-10-13T09:41:24;101457;;;17.3;39
49583;BME280;36329;48.816;44.624;2023-10-13T09:44:26;101447;;;17.5;38.6
49583;BME280;36329;48.816;44.624;2023-10-13T09:47:29;101448;;;17.6;37.8
49583;BME280;36329;48.816;44.624;2023-10-13T09:50:36;101452;;;18.5;37.7
49583;BME280;36329;48.816;44.624;2023-10-13T09:53:40;101446;;;18.5;36.6
49583;BME280;36329;48.816;44.624;2023-10-13T09:56:50;101445;;;18.4;36.1
49583;BME280;36329;48.816;44.624;2023-10-13T09:59:57;101442;;;17.8;36.7
49583;BME280;36329;48.816;44.624;2023-10-13T10:03:06;101450;;;17.7;37.3
49583;BME280;36329;48.816;44.624;2023-10-13T10:06:08;101439;;;17.9;38.3
49583;BME280;36329;48.816;44.624;2023-10-13T10:09:10;101437;;;18;37.3
49583;BME280;36329;48.816;44.624;2023-10-13T10:12:16;101439;;;17.5;38.3
49583;BME280;36329;48.816;44.624;2023-10-13T10:15:26;101421;;;17.6;39.1
49583;BME280;36329;48.816;44.624;2023-10-13T10:18:30;101423;;;18.1;37.7
49583;BME280;36329;48.816;44.624;2023-10-13T10:21:33;101420;;;17.4;37.8
49583;BME280;36329;48.816;44.624;2023-10-13T10:24:35;101431;;;16.5;39.3
49583;BME280;36329;48.816;44.624;2023-10-13T10:27:37;101438;;;16.9;38.8
49583;BME280;36329;48.816;44.624;2023-10-13T10:30:39;101434;;;17.2;38.9
49583;BME280;36329;48.816;44.624;2023-10-13T10:33:41;101424;;;17.7;38.5
49583;BME280;36329;48.816;44.624;2023-10-13T10:36:45;101421;;;18.2;37
49583;BME280;36329;48.816;44.624;2023-10-13T10:39:48;101412;;;18.2;37.1
49583;BME280;36329;48.816;44.624;2023-10-13T10:42:50;101413;;;18.1;37
49583;BME280;36329;48.816;44.624;2023-10-13T10:45:52;101411;;;18.7;35.9
49583;BME280;36329;48.816;44.624;2023-10-13T10:48:55;101415;;;19;35.1
49583;BME280;36329;48.816;44.624;2023-10-13T10:51:58;101417;;;19.1;33.6
49583;BME280;36329;48.816;44.624;2023-10-13T10:55:00;101417;;;19.2;34
49583;BME280;36329;48.816;44.624;2023-10-13T10:58:03;101406;;;19;34.5
49583;BME280;36329;48.816;44.624;2023-10-13T11:01:05;101414;;;19.2;34.8
49583;BME280;36329;48.816;44.624;2023-10-13T11:04:07;101408;;;19;35.1
49583;BME280;36329;48.816;44.624;2023-10-13T11:07:20;101402;;;17.9;36.6
49583;BME280;36329;48.816;44.624;2023-10-13T11:10:22;101409;;;18.5;36.4
49583;BME280;36329;48.816;44.624;2023-10-13T11:13:24;101405;;;18.2;36.4
49583;BME280;36329;48.816;44.624;2023-10-13T11:16:26;101406;;;17.9;36.8
49583;BME280;36329;48.816;44.624;2023-10-13T11:19:36;101398;;;17.7;37.7
49583;BME280;36329;48.816;44.624;2023-10-13T11:22:39;101397;;;17.9;37.7
49583;BME280;36329;48.816;44.624;2023-10-13T11:25:41;101406;;;17.6;38.1
49583;BME280;36329;48.816;44.624;2023-10-13T11:28:50;101396;;;17.5;38.8
49583;BME280;36329;48.816;44.624;2023-10-13T11:31:52;101401;;;17.5;38.5
49583;BME280;36329;48.816;44.624;2023-10-13T11:34:54;101401;;;17.2;39.3
49583;BME280;36329;48.816;44.624;2023-10-13T11:37:56;101402;;;17.3;39
49583;BME280;36329;48.816;44.624;2023-10-13T11:40:59;101399;;;17.2;38.7
49583;BME280;36329;48.816;44.624;2023-10-13T11:44:01;101414;;;17.1;38.4
49583;BME280;36329;48.816;44.624;2023-10-13T11:47:03;101407;;;17;38.8
49583;BME280;36329;48.816;44.624;2023-10-13T11:50:05;101415;;;16.7;39.2
49583;BME280;36329;48.816;44.624;2023-10-13T11:53:08;101394;;;17;39.6
49583;BME280;36329;48.816;44.624;2023-10-13T11:56:10;101399;;;16.8;38.9
49583;BME280;36329;48.816;44.624;2023-10-13T11:59:12;101398;;;16.9;39
49583;BME280;36329;48.816;44.624;2023-10-13T12:02:14;101405;;;16.8;39
49583;BME280;36329;48.816;44.624;2023-10-13T12:05:16;101414;;;16.6;37.8
49583;BME280;36329;48.816;44.624;2023-10-13T12:08:18;101409;;;16.5;37.6
49583;BME280;36329;48.816;44.624;2023-10-13T12:11:20;101395;;;16.5;36.8
49583;BME280;36329;48.816;44.624;2023-10-13T12:14:22;101389;;;16.5;37.1
49583;BME280;36329;48.816;44.624;2023-10-13T12:17:30;101393;;;16.5;37.4
49583;BME280;36329;48.816;44.624;2023-10-13T12:20:33;101390;;;16.6;37.1
49583;BME280;36329;48.816;44.624;2023-10-13T12:23:46;101387;;;16.5;37.8
49583;BME280;36329;48.816;44.624;2023-10-13T12:27:05;101391;;;16.5;38.1
49583;BME280;36329;48.816;44.624;2023-10-13T12:30:09;101390;;;16.5;38.7
49583;BME280;36329;48.816;44.624;2023-10-13T12:33:11;101391;;;16.2;39.3
49583;BME280;36329;48.816;44.624;2023-10-13T12:36:25;101389;;;16.4;39.5
49583;BME280;36329;48.816;44.624;2023-10-13T12:39:36;101390;;;16.4;39.5
49583;BME280;36329;48.816;44.624;2023-10-13T12:42:44;101390;;;16.3;39.7
49583;BME280;36329;48.816;44.624;2023-10-13T12:45:53;101400;;;16.3;40.1
49583;BME280;36329;48.816;44.624;2023-10-13T12:48:56;101395;;;16.3;39.8
49583;BME280;36329;48.816;44.624;2023-10-13T12:51:58;101404;;;16.1;40.1
49583;BME280;36329;48.816;44.624;2023-10-13T12:55:11;101406;;;16.1;40.4
49583;BME280;36329;48.816;44.624;2023-10-13T12:58:20;101402;;;15.8;40.6
49583;BME280;36329;48.816;44.624;2023-10-13T13:01:24;101397;;;15.9;40.2
49583;BME280;36329;48.816;44.624;2023-10-13T13:04:35;101395;;;15.8;39.7
49583;BME280;36329;48.816;44.624;2023-10-13T13:07:37;101391;;;15.7;39.2
49583;BME280;36329;48.816;44.624;2023-10-13T13:10:41;101394;;;15.7;39.3
49583;BME280;36329;48.816;44.624;2023-10-13T13:13:45;101389;;;15.6;39.3
49583;BME280;36329;48.816;44.624;2023-10-13T13:16:48;101385;;;15.6;39.5
49583;BME280;36329;48.816;44.624;2023-10-13T13:19:57;101390;;;15.5;39.9
49583;BME280;36329;48.816;44.624;2023-10-13T13:22:59;101392;;;15.4;40.1
49583;BME280;36329;48.816;44.624;2023-10-13T13:26:02;101387;;;15.4;40
49583;BME280;36329;48.816;44.624;2023-10-13T13:29:05;101388;;;15.2;39.7
49583;BME280;36329;48.816;44.624;2023-10-13T13:32:08;101390;;;15.1;39.9
49583;BME280;36329;48.816;44.624;2023-10-13T13:35:11;101390;;;15.1;39.9
49583;BME280;36329;48.816;44.624;2023-10-13T13:38:14;101391;;;15;40.1
49583;BME280;36329;48.816;44.624;2023-10-13T13:41:18;101399;;;15.1;40.1
49583;BME280;36329;48.816;44.624;2023-10-13T13:44:30;101399;;;15.1;40
49583;BME280;36329;48.816;44.624;2023-10-13T13:47:33;101390;;;15.1;40.4
49583;BME280;36329;48.816;44.624;2023-10-13T13:50:37;101397;;;15.1;40.6
49583;BME280;36329;48.816;44.624;2023-10-13T13:54:00;101396;;;14.9;40.7
49583;BME280;36329;48.816;44.624;2023-10-13T13:57:03;101395;;;14.9;41.1
49583;BME280;36329;48.816;44.624;2023-10-13T14:00:06;101394;;;14.9;41.2
49583;BME280;36329;48.816;44.624;2023-10-13T14:03:09;101396;;;14.9;41.4
49583;BME280;36329;48.816;44.624;2023-10-13T14:06:23;101398;;;14.7;42.1
49583;BME280;36329;48.816;44.624;2023-10-13T14:09:35;101396;;;14.6;42.4
49583;BME280;36329;48.816;44.624;2023-10-13T14:12:38;101397;;;14.5;42.9
49583;BME280;36329;48.816;44.624;2023-10-13T14:15:40;101384;;;14.5;43.1
49583;BME280;36329;48.816;44.624;2023-10-13T14:18:42;101388;;;14.4;43.3
49583;BME280;36329;48.816;44.624;2023-10-13T14:21:44;101386;;;14.4;43.6
49583;BME280;36329;48.816;44.624;2023-10-13T14:24:48;101389;;;14.4;43.9
49583;BME280;36329;48.816;44.624;2023-10-13T14:28:01;101397;;;14.3;44.5
49583;BME280;36329;48.816;44.624;2023-10-13T14:31:05;101396;;;14.2;45
49583;BME280;36329;48.816;44.624;2023-10-13T14:34:07;101391;;;14.3;45.1
49583;BME280;36329;48.816;44.624;2023-10-13T14:37:10;101393;;;14.3;45.2
49583;BME280;36329;48.816;44.624;2023-10-13T14:40:23;101384;;;14.2;45.4
49583;BME280;36329;48.816;44.624;2023-10-13T14:43:37;101397;;;14.2;45.9
49583;BME280;36329;48.816;44.624;2023-10-13T14:46:39;101405;;;14.3;45.7
49583;BME280;36329;48.816;44.624;2023-10-13T14:49:48;101405;;;14.4;45.8
49583;BME280;36329;48.816;44.624;2023-10-13T14:52:50;101403;;;14.3;46
49583;BME280;36329;48.816;44.624;2023-10-13T14:55:52;101403;;;14.3;46.2
49583;BME280;36329;48.816;44.624;2023-10-13T14:58:59;101405;;;14.2;46.7
49583;BME280;36329;48.816;44.624;2023-10-13T15:02:08;101405;;;14.2;46.5
49583;BME280;36329;48.816;44.624;2023-10-13T15:05:13;101414;;;14.3;46.7
49583;BME280;36329;48.816;44.624;2023-10-13T15:08:26;101412;;;14.3;46.6
49583;BME280;36329;48.816;44.624;2023-10-13T15:11:36;101417;;;14.3;46.5
49583;BME280;36329;48.816;44.624;2023-10-13T15:14:43;101419;;;14.3;46.7
49583;BME280;36329;48.816;44.624;2023-10-13T15:17:51;101424;;;14.3;46.4
49583;BME280;36329;48.816;44.624;2023-10-13T15:20:53;101428;;;14.2;46.7
49583;BME280;36329;48.816;44.624;2023-10-13T15:23:55;101430;;;14.2;47
49583;BME280;36329;48.816;44.624;2023-10-13T15:26:58;101427;;;14.2;46.9
49583;BME280;36329;48.816;44.624;2023-10-13T15:30:00;101426;;;14.2;47
49583;BME280;36329;48.816;44.624;2023-10-13T15:33:02;101428;;;14.2;47.1
49583;BME280;36329;48.816;44.624;2023-10-13T15:36:04;101426;;;14;47.6
49583;BME280;36329;48.816;44.624;2023-10-13T15:39:06;101428;;;14;47.9
49583;BME280;36329;48.816;44.624;2023-10-13T15:42:15;101422;;;14;47.6
49583;BME280;36329;48.816;44.624;2023-10-13T15:45:42;101422;;;14;48
49583;BME280;36329;48.816;44.624;2023-10-13T15:48:45;101426;;;13.9;48.1
49583;BME280;36329;48.816;44.624;2023-10-13T15:51:52;101426;;;13.9;48.4
49583;BME280;36329;48.816;44.624;2023-10-13T15:54:57;101420;;;13.9;48.2
49583;BME280;36329;48.816;44.624;2023-10-13T15:58:00;101422;;;13.8;48.4
49583;BME280;36329;48.816;44.624;2023-10-13T16:01:02;101412;;;13.8;48.7
49583;BME280;36329;48.816;44.624;2023-10-13T16:04:14;101422;;;13.8;48.8
49583;BME280;36329;48.816;44.624;2023-10-13T16:07:17;101420;;;13.7;49
49583;BME280;36329;48.816;44.624;2023-10-13T16:10:21;101418;;;13.8;49.1
49583;BME280;36329;48.816;44.624;2023-10-13T16:13:23;101416;;;13.7;49.5
49583;BME280;36329;48.816;44.624;2023-10-13T16:16:25;101412;;;13.6;49.8
49583;BME280;36329;48.816;44.624;2023-10-13T16:19:27;101413;;;13.6;50
49583;BME280;36329;48.816;44.624;2023-10-13T16:22:31;101408;;;13.6;50
49583;BME280;36329;48.816;44.624;2023-10-13T16:25:33;101403;;;13.6;50.1
49583;BME280;36329;48.816;44.624;2023-10-13T16:28:35;101407;;;13.5;50.2
49583;BME280;36329;48.816;44.624;2023-10-13T16:31:37;101410;;;13.5;50.7
49583;BME280;36329;48.816;44.624;2023-10-13T16:34:39;101407;;;13.4;50.7
49583;BME280;36329;48.816;44.624;2023-10-13T16:37:41;101408;;;13.4;50.8
49583;BME280;36329;48.816;44.624;2023-10-13T16:40:42;101409;;;13.4;51
49583;BME280;36329;48.816;44.624;2023-10-13T16:43:44;101415;;;13.3;51.2
49583;BME280;36329;48.816;44.624;2023-10-13T16:46:46;101418;;;13.3;51.6
49583;BME280;36329;48.816;44.624;2023-10-13T16:49:50;101419;;;13.3;51.5
49583;BME280;36329;48.816;44.624;2023-10-13T16:52:53;101415;;;13.3;51.8
49583;BME280;36329;48.816;44.624;2023-10-13T16:55:58;101420;;;13.4;51.8
49583;BME280;36329;48.816;44.624;2023-10-13T16:59:06;101419;;;13.4;52
49583;BME280;36329;48.816;44.624;2023-10-13T17:02:29;101421;;;13.4;51.8